Lisbon, Iowa
Current Conditions -  °F | °C
As of 1:12 PM on Friday 24 Oct 2014 (Local Time) from KCID Reporting Station
Haze Haze  
Wind Chill: 56°   Ceiling: 200
Heat Index: 56°   Visibility: 1.2mi
Dew Point: 56°   Wind: 13mph
Humidity: 100%   Direction: 170°S
Pressure: 29.96"   Gusts: NA
Location:  41.92°N, 91.39°W
Report Text: KCID 241812Z 17011KT 1 1/4SM BR OVC002 13/13 A2996 RMK AO2 T01330133
Loading
Personal Weather Stations






























Interactive Weather Map
Tropical Storm Tracking
New forecast layout! Learn more

10-Day Weather Forecast

Advertisements
Track Severe Weather on mobile